sensor_id;sensor_type;location;lat;lon;timestamp;pressure;altitude;pressure_sealevel;temperature;humidity
50103;BME280;35993;52.604;10.078;2023-04-23T00:01:10;100244.50;;;14.69;100.00
50103;BME280;35993;52.604;10.078;2023-04-23T00:03:37;100243.47;;;14.75;100.00
50103;BME280;35993;52.604;10.078;2023-04-23T00:06:05;100245.03;;;14.66;100.00
50103;BME280;35993;52.604;10.078;2023-04-23T00:08:31;100243.00;;;14.61;100.00
50103;BME280;35993;52.604;10.078;2023-04-23T00:10:57;100243.28;;;14.59;100.00
50103;BME280;35993;52.604;10.078;2023-04-23T00:13:23;100241.88;;;14.57;100.00
50103;BME280;35993;52.604;10.078;2023-04-23T00:15:49;100239.34;;;14.50;100.00
50103;BME280;35993;52.604;10.078;2023-04-23T00:18:15;100233.63;;;14.52;100.00
50103;BME280;35993;52.604;10.078;2023-04-23T00:20:44;100233.56;;;14.47;100.00
50103;BME280;35993;52.604;10.078;2023-04-23T00:23:09;100238.19;;;14.46;100.00
50103;BME280;35993;52.604;10.078;2023-04-23T00:25:35;100230.56;;;14.48;100.00
50103;BME280;35993;52.604;10.078;2023-04-23T00:28:01;100231.91;;;14.46;100.00
50103;BME280;35993;52.604;10.078;2023-04-23T00:30:27;100223.72;;;14.46;100.00
50103;BME280;35993;52.604;10.078;2023-04-23T00:32:52;100231.66;;;14.47;100.00
50103;BME280;35993;52.604;10.078;2023-04-23T00:35:18;100228.66;;;14.49;100.00
50103;BME280;35993;52.604;10.078;2023-04-23T00:37:45;100229.19;;;14.46;100.00
50103;BME280;35993;52.604;10.078;2023-04-23T00:40:11;100229.19;;;14.46;100.00
50103;BME280;35993;52.604;10.078;2023-04-23T00:42:37;100221.56;;;14.48;100.00
50103;BME280;35993;52.604;10.078;2023-04-23T00:45:05;100227.78;;;14.43;100.00
50103;BME280;35993;52.604;10.078;2023-04-23T00:47:31;100227.97;;;14.36;100.00
50103;BME280;35993;52.604;10.078;2023-04-23T00:49:58;100220.34;;;14.38;100.00
50103;BME280;35993;52.604;10.078;2023-04-23T00:52:23;100219.84;;;14.41;100.00
50103;BME280;35993;52.604;10.078;2023-04-23T00:54:49;100219.84;;;14.41;100.00
50103;BME280;35993;52.604;10.078;2023-04-23T00:57:15;100225.63;;;14.45;100.00
50103;BME280;35993;52.604;10.078;2023-04-23T00:59:41;100213.19;;;14.32;100.00
50103;BME280;35993;52.604;10.078;2023-04-23T01:02:07;100218.47;;;14.39;100.00
50103;BME280;35993;52.604;10.078;2023-04-23T01:04:34;100220.06;;;14.35;100.00
50103;BME280;35993;52.604;10.078;2023-04-23T01:07:00;100222.25;;;14.38;100.00
50103;BME280;35993;52.604;10.078;2023-04-23T01:09:27;100215.28;;;14.25;100.00
50103;BME280;35993;52.604;10.078;2023-04-23T01:11:52;100216.09;;;14.25;100.00
50103;BME280;35993;52.604;10.078;2023-04-23T01:14:18;100215.78;;;14.22;100.00
50103;BME280;35993;52.604;10.078;2023-04-23T01:16:43;100228.94;;;14.25;100.00
50103;BME280;35993;52.604;10.078;2023-04-23T01:19:10;100216.09;;;14.25;100.00
50103;BME280;35993;52.604;10.078;2023-04-23T01:21:37;100221.28;;;14.27;100.00
50103;BME280;35993;52.604;10.078;2023-04-23T01:24:06;100218.00;;;14.25;100.00
50103;BME280;35993;52.604;10.078;2023-04-23T01:26:33;100219.72;;;14.31;100.00
50103;BME280;35993;52.604;10.078;2023-04-23T01:28:59;100221.88;;;14.29;100.00
50103;BME280;35993;52.604;10.078;2023-04-23T01:31:29;100225.63;;;14.23;100.00
50103;BME280;35993;52.604;10.078;2023-04-23T01:33:56;100226.47;;;14.23;100.00
50103;BME280;35993;52.604;10.078;2023-04-23T01:36:23;100229.69;;;14.20;100.00
50103;BME280;35993;52.604;10.078;2023-04-23T01:38:50;100221.50;;;14.20;100.00
50103;BME280;35993;52.604;10.078;2023-04-23T01:41:17;100225.81;;;14.16;100.00
50103;BME280;35993;52.604;10.078;2023-04-23T01:43:43;100230.88;;;14.07;100.00
50103;BME280;35993;52.604;10.078;2023-04-23T01:46:08;100224.88;;;14.05;100.00
50103;BME280;35993;52.604;10.078;2023-04-23T01:48:35;100222.06;;;14.00;100.00
50103;BME280;35993;52.604;10.078;2023-04-23T01:51:01;100228.25;;;13.96;100.00
50103;BME280;35993;52.604;10.078;2023-04-23T01:53:27;100223.47;;;14.03;100.00
50103;BME280;35993;52.604;10.078;2023-04-23T01:55:54;100228.38;;;13.84;100.00
50103;BME280;35993;52.604;10.078;2023-04-23T01:58:20;100230.19;;;13.78;100.00
50103;BME280;35993;52.604;10.078;2023-04-23T02:00:50;100216.00;;;13.76;100.00
50103;BME280;35993;52.604;10.078;2023-04-23T02:03:16;100217.53;;;13.72;100.00
50103;BME280;35993;52.604;10.078;2023-04-23T02:05:42;100224.41;;;13.74;100.00
50103;BME280;35993;52.604;10.078;2023-04-23T02:08:09;100223.19;;;13.65;100.00
50103;BME280;35993;52.604;10.078;2023-04-23T02:10:35;100222.50;;;13.58;100.00
50103;BME280;35993;52.604;10.078;2023-04-23T02:13:01;100219.22;;;13.56;100.00
50103;BME280;35993;52.604;10.078;2023-04-23T02:15:28;100228.72;;;13.36;100.00
50103;BME280;35993;52.604;10.078;2023-04-23T02:17:54;100229.69;;;13.30;100.00
50103;BME280;35993;52.604;10.078;2023-04-23T02:20:20;100234.56;;;13.28;100.00
50103;BME280;35993;52.604;10.078;2023-04-23T02:22:49;100237.88;;;13.30;100.00
50103;BME280;35993;52.604;10.078;2023-04-23T02:25:15;100243.03;;;13.43;100.00
50103;BME280;35993;52.604;10.078;2023-04-23T02:27:43;100242.72;;;13.28;100.00
50103;BME280;35993;52.604;10.078;2023-04-23T02:30:09;100239.75;;;13.13;100.00
50103;BME280;35993;52.604;10.078;2023-04-23T02:32:36;100238.00;;;13.06;100.00
50103;BME280;35993;52.604;10.078;2023-04-23T02:35:02;100241.69;;;13.00;100.00
50103;BME280;35993;52.604;10.078;2023-04-23T02:37:31;100240.28;;;12.98;100.00
50103;BME280;35993;52.604;10.078;2023-04-23T02:39:57;100246.16;;;12.89;100.00
50103;BME280;35993;52.604;10.078;2023-04-23T02:42:22;100245.41;;;12.94;100.00
50103;BME280;35993;52.604;10.078;2023-04-23T02:44:48;100243.44;;;13.06;100.00
50103;BME280;35993;52.604;10.078;2023-04-23T02:47:13;100249.31;;;12.98;100.00
50103;BME280;35993;52.604;10.078;2023-04-23T02:49:39;100245.41;;;12.94;100.00
50103;BME280;35993;52.604;10.078;2023-04-23T02:52:04;100245.72;;;12.81;100.00
50103;BME280;35993;52.604;10.078;2023-04-23T02:54:30;100244.06;;;12.79;100.00
50103;BME280;35993;52.604;10.078;2023-04-23T02:56:57;100250.81;;;12.77;100.00
50103;BME280;35993;52.604;10.078;2023-04-23T02:59:23;100257.13;;;12.66;100.00
50103;BME280;35993;52.604;10.078;2023-04-23T03:01:49;100257.50;;;12.86;100.00
50103;BME280;35993;52.604;10.078;2023-04-23T03:04:16;100251.09;;;12.92;100.00
50103;BME280;35993;52.604;10.078;2023-04-23T03:06:43;100259.38;;;12.69;100.00
50103;BME280;35993;52.604;10.078;2023-04-23T03:09:09;100264.38;;;12.60;100.00
50103;BME280;35993;52.604;10.078;2023-04-23T03:11:35;100261.66;;;12.60;100.00
50103;BME280;35993;52.604;10.078;2023-04-23T03:14:00;100264.28;;;12.55;100.00
50103;BME280;35993;52.604;10.078;2023-04-23T03:16:27;100269.31;;;12.63;100.00
50103;BME280;35993;52.604;10.078;2023-04-23T03:18:53;100271.59;;;12.66;100.00
50103;BME280;35993;52.604;10.078;2023-04-23T03:21:19;100264.72;;;12.64;100.00
50103;BME280;35993;52.604;10.078;2023-04-23T03:23:45;100268.84;;;12.66;100.00
50103;BME280;35993;52.604;10.078;2023-04-23T03:26:11;100265.53;;;12.64;100.00
50103;BME280;35993;52.604;10.078;2023-04-23T03:28:36;100271.91;;;12.70;100.00
50103;BME280;35993;52.604;10.078;2023-04-23T03:31:02;100271.44;;;12.73;100.00
50103;BME280;35993;52.604;10.078;2023-04-23T03:33:28;100268.22;;;12.76;100.00
50103;BME280;35993;52.604;10.078;2023-04-23T03:35:53;100264.22;;;12.67;100.00
50103;BME280;35993;52.604;10.078;2023-04-23T03:38:23;100267.75;;;12.67;100.00
50103;BME280;35993;52.604;10.078;2023-04-23T03:40:50;100270.16;;;12.64;100.00
50103;BME280;35993;52.604;10.078;2023-04-23T03:43:16;100263.22;;;12.44;100.00
50103;BME280;35993;52.604;10.078;2023-04-23T03:46:01;100277.28;;;12.53;100.00
50103;BME280;35993;52.604;10.078;2023-04-23T03:48:29;100267.34;;;12.46;100.00
50103;BME280;35993;52.604;10.078;2023-04-23T03:50:55;100272.69;;;12.41;100.00
50103;BME280;35993;52.604;10.078;2023-04-23T03:53:31;100274.53;;;12.24;100.00
50103;BME280;35993;52.604;10.078;2023-04-23T03:56:16;100276.75;;;12.27;100.00
50103;BME280;35993;52.604;10.078;2023-04-23T03:58:50;100278.44;;;12.16;100.00
50103;BME280;35993;52.604;10.078;2023-04-23T04:01:16;100277.03;;;12.13;100.00
50103;BME280;35993;52.604;10.078;2023-04-23T04:03:42;100274.31;;;12.13;100.00
50103;BME280;35993;52.604;10.078;2023-04-23T04:06:08;100283.72;;;12.11;100.00
50103;BME280;35993;52.604;10.078;2023-04-23T04:08:33;100284.09;;;12.03;100.00
50103;BME280;35993;52.604;10.078;2023-04-23T04:10:59;100284.34;;;12.13;100.00
50103;BME280;35993;52.604;10.078;2023-04-23T04:13:25;100287.91;;;12.13;100.00
50103;BME280;35993;52.604;10.078;2023-04-23T04:15:50;100287.19;;;12.06;100.00
50103;BME280;35993;52.604;10.078;2023-04-23T04:18:16;100294.63;;;11.99;100.00
50103;BME280;35993;52.604;10.078;2023-04-23T04:20:41;100296.38;;;11.93;100.00
50103;BME280;35993;52.604;10.078;2023-04-23T04:23:09;100299.00;;;12.00;100.00
50103;BME280;35993;52.604;10.078;2023-04-23T04:25:35;100302.53;;;11.77;100.00
50103;BME280;35993;52.604;10.078;2023-04-23T04:28:04;100316.81;;;11.72;100.00
50103;BME280;35993;52.604;10.078;2023-04-23T04:30:32;100316.94;;;11.66;100.00
50103;BME280;35993;52.604;10.078;2023-04-23T04:32:58;100313.72;;;11.69;100.00
50103;BME280;35993;52.604;10.078;2023-04-23T04:35:25;100317.66;;;11.73;100.00
50103;BME280;35993;52.604;10.078;2023-04-23T04:37:51;100320.69;;;11.64;100.00
50103;BME280;35993;52.604;10.078;2023-04-23T04:40:19;100322.94;;;11.56;100.00
50103;BME280;35993;52.604;10.078;2023-04-23T04:42:45;100326.50;;;11.56;100.00
50103;BME280;35993;52.604;10.078;2023-04-23T04:45:11;100331.56;;;11.53;100.00
50103;BME280;35993;52.604;10.078;2023-04-23T04:47:37;100328.84;;;11.53;100.00
50103;BME280;35993;52.604;10.078;2023-04-23T04:50:03;100327.88;;;11.47;100.00
50103;BME280;35993;52.604;10.078;2023-04-23T04:52:30;100328.28;;;11.62;100.00
50103;BME280;35993;52.604;10.078;2023-04-23T04:54:55;100326.72;;;11.55;100.00
50103;BME280;35993;52.604;10.078;2023-04-23T04:57:21;100334.53;;;11.51;100.00
50103;BME280;35993;52.604;10.078;2023-04-23T04:59:48;100326.69;;;11.43;100.00
50103;BME280;35993;52.604;10.078;2023-04-23T05:02:14;100330.38;;;11.48;100.00
50103;BME280;35993;52.604;10.078;2023-04-23T05:04:40;100338.84;;;11.40;100.00
50103;BME280;35993;52.604;10.078;2023-04-23T05:07:06;100336.00;;;11.35;100.00
50103;BME280;35993;52.604;10.078;2023-04-23T05:09:31;100337.31;;;11.44;100.00
50103;BME280;35993;52.604;10.078;2023-04-23T05:11:57;100341.44;;;11.35;100.00
50103;BME280;35993;52.604;10.078;2023-04-23T05:14:22;100342.06;;;11.19;100.00
50103;BME280;35993;52.604;10.078;2023-04-23T05:16:50;100340.75;;;11.09;100.00
50103;BME280;35993;52.604;10.078;2023-04-23T05:19:15;100346.09;;;11.16;100.00
50103;BME280;35993;52.604;10.078;2023-04-23T05:21:41;100354.88;;;10.99;100.00
50103;BME280;35993;52.604;10.078;2023-04-23T05:24:07;100352.44;;;11.10;100.00
50103;BME280;35993;52.604;10.078;2023-04-23T05:26:32;100360.03;;;11.20;100.00
50103;BME280;35993;52.604;10.078;2023-04-23T05:28:58;100361.94;;;11.19;100.00
50103;BME280;35993;52.604;10.078;2023-04-23T05:31:24;100357.56;;;11.18;100.00
50103;BME280;35993;52.604;10.078;2023-04-23T05:33:49;100360.28;;;11.18;100.00
50103;BME280;35993;52.604;10.078;2023-04-23T05:36:15;100362.78;;;11.31;100.00
50103;BME280;35993;52.604;10.078;2023-04-23T05:38:40;100369.34;;;11.12;100.00
50103;BME280;35993;52.604;10.078;2023-04-23T05:41:06;100363.81;;;11.19;100.00
50103;BME280;35993;52.604;10.078;2023-04-23T05:43:31;100366.53;;;11.19;100.00
50103;BME280;35993;52.604;10.078;2023-04-23T05:45:57;100368.19;;;11.20;100.00
50103;BME280;35993;52.604;10.078;2023-04-23T05:48:22;100368.66;;;11.17;100.00
50103;BME280;35993;52.604;10.078;2023-04-23T05:50:48;100363.59;;;11.20;100.00
50103;BME280;35993;52.604;10.078;2023-04-23T05:53:13;100369.56;;;11.10;100.00
50103;BME280;35993;52.604;10.078;2023-04-23T05:55:39;100368.00;;;11.03;100.00
50103;BME280;35993;52.604;10.078;2023-04-23T05:58:05;100368.88;;;11.15;100.00
50103;BME280;35993;52.604;10.078;2023-04-23T06:00:30;100371.97;;;11.19;100.00
50103;BME280;35993;52.604;10.078;2023-04-23T06:02:56;100368.94;;;11.27;100.00
50103;BME280;35993;52.604;10.078;2023-04-23T06:05:22;100373.38;;;11.21;100.00
50103;BME280;35993;52.604;10.078;2023-04-23T06:07:48;100375.72;;;11.18;100.00
50103;BME280;35993;52.604;10.078;2023-04-23T06:10:13;100379.97;;;11.13;100.00
50103;BME280;35993;52.604;10.078;2023-04-23T06:12:39;100388.22;;;11.07;100.00
50103;BME280;35993;52.604;10.078;2023-04-23T06:15:07;100398.13;;;11.01;100.00
50103;BME280;35993;52.604;10.078;2023-04-23T06:17:34;100391.25;;;10.80;100.00
50103;BME280;35993;52.604;10.078;2023-04-23T06:20:01;100392.81;;;10.88;100.00
50103;BME280;35993;52.604;10.078;2023-04-23T06:22:31;100392.59;;;10.89;100.00
50103;BME280;35993;52.604;10.078;2023-04-23T06:24:57;100392.16;;;10.92;100.00
50103;BME280;35993;52.604;10.078;2023-04-23T06:27:22;100388.84;;;10.72;100.00
50103;BME280;35993;52.604;10.078;2023-04-23T06:29:50;100386.94;;;11.09;100.00
50103;BME280;35993;52.604;10.078;2023-04-23T06:32:17;100380.44;;;11.10;100.00
50103;BME280;35993;52.604;10.078;2023-04-23T06:34:43;100396.38;;;11.07;100.00
50103;BME280;35993;52.604;10.078;2023-04-23T06:37:09;100393.56;;;11.13;100.00
50103;BME280;35993;52.604;10.078;2023-04-23T06:39:34;100392.88;;;10.99;100.00
50103;BME280;35993;52.604;10.078;2023-04-23T06:42:00;100398.78;;;10.96;100.00
50103;BME280;35993;52.604;10.078;2023-04-23T06:44:56;100401.41;;;11.03;100.00
50103;BME280;35993;52.604;10.078;2023-04-23T06:47:23;100397.03;;;11.02;100.00
50103;BME280;35993;52.604;10.078;2023-04-23T06:49:49;100394.56;;;11.01;100.00
50103;BME280;35993;52.604;10.078;2023-04-23T06:52:14;100391.59;;;11.02;100.00
50103;BME280;35993;52.604;10.078;2023-04-23T06:54:40;100388.34;;;11.12;100.00
50103;BME280;35993;52.604;10.078;2023-04-23T06:57:05;100385.09;;;11.22;100.00
50103;BME280;35993;52.604;10.078;2023-04-23T06:59:31;100384.66;;;11.37;100.00
50103;BME280;35993;52.604;10.078;2023-04-23T07:01:58;100386.66;;;11.29;100.00
50103;BME280;35993;52.604;10.078;2023-04-23T07:04:23;100377.78;;;11.22;100.00
50103;BME280;35993;52.604;10.078;2023-04-23T07:06:49;100381.69;;;11.26;100.00
50103;BME280;35993;52.604;10.078;2023-04-23T07:09:15;100378.91;;;11.14;100.00
50103;BME280;35993;52.604;10.078;2023-04-23T07:11:40;100373.53;;;11.26;100.00
50103;BME280;35993;52.604;10.078;2023-04-23T07:14:06;100379.81;;;11.27;100.00
50103;BME280;35993;52.604;10.078;2023-04-23T07:16:32;100372.09;;;11.24;100.00
50103;BME280;35993;52.604;10.078;2023-04-23T07:19:01;100362.84;;;11.13;100.00
50103;BME280;35993;52.604;10.078;2023-04-23T07:21:27;100358.63;;;11.17;100.00
50103;BME280;35993;52.604;10.078;2023-04-23T07:23:55;100362.91;;;11.25;100.00
50103;BME280;35993;52.604;10.078;2023-04-23T07:26:21;100360.09;;;11.31;100.00
50103;BME280;35993;52.604;10.078;2023-04-23T07:28:46;100362.16;;;11.48;100.00
50103;BME280;35993;52.604;10.078;2023-04-23T07:31:13;100371.53;;;11.64;100.00
50103;BME280;35993;52.604;10.078;2023-04-23T07:33:39;100367.50;;;11.55;99.62
50103;BME280;35993;52.604;10.078;2023-04-23T07:36:04;100364.41;;;11.51;98.20
50103;BME280;35993;52.604;10.078;2023-04-23T07:38:30;100369.84;;;11.51;99.40
50103;BME280;35993;52.604;10.078;2023-04-23T07:40:55;100371.91;;;11.68;100.00
50103;BME280;35993;52.604;10.078;2023-04-23T07:43:21;100374.53;;;11.74;100.00
50103;BME280;35993;52.604;10.078;2023-04-23T07:45:46;100357.84;;;11.71;100.00
50103;BME280;35993;52.604;10.078;2023-04-23T07:48:13;100354.38;;;11.63;100.00
50103;BME280;35993;52.604;10.078;2023-04-23T07:50:38;100362.13;;;11.90;100.00
50103;BME280;35993;52.604;10.078;2023-04-23T07:53:04;100366.44;;;12.10;100.00
50103;BME280;35993;52.604;10.078;2023-04-23T07:55:29;100357.97;;;11.88;100.00
50103;BME280;35993;52.604;10.078;2023-04-23T07:57:55;100363.94;;;11.96;100.00
50103;BME280;35993;52.604;10.078;2023-04-23T08:00:21;100364.53;;;12.22;100.00
50103;BME280;35993;52.604;10.078;2023-04-23T08:02:46;100363.59;;;12.40;100.00
50103;BME280;35993;52.604;10.078;2023-04-23T08:05:12;100361.00;;;12.45;100.00
50103;BME280;35993;52.604;10.078;2023-04-23T08:07:37;100366.88;;;12.78;100.00
50103;BME280;35993;52.604;10.078;2023-04-23T08:10:03;100358.22;;;12.69;97.93
50103;BME280;35993;52.604;10.078;2023-04-23T08:12:32;100356.47;;;12.75;99.66
50103;BME280;35993;52.604;10.078;2023-04-23T08:15:00;100359.28;;;12.80;98.81
50103;BME280;35993;52.604;10.078;2023-04-23T08:17:32;100356.31;;;12.82;98.04
50103;BME280;35993;52.604;10.078;2023-04-23T08:19:58;100360.34;;;12.67;96.03
50103;BME280;35993;52.604;10.078;2023-04-23T08:22:23;100359.31;;;13.09;97.72
50103;BME280;35993;52.604;10.078;2023-04-23T08:24:49;100358.00;;;13.11;94.98
50103;BME280;35993;52.604;10.078;2023-04-23T08:27:15;100340.72;;;13.06;94.68
50103;BME280;35993;52.604;10.078;2023-04-23T08:29:40;100344.56;;;13.22;94.28
50103;BME280;35993;52.604;10.078;2023-04-23T08:32:06;100337.34;;;13.16;94.28
50103;BME280;35993;52.604;10.078;2023-04-23T08:34:31;100333.50;;;13.28;93.35
50103;BME280;35993;52.604;10.078;2023-04-23T08:37:00;100327.19;;;13.40;90.41
50103;BME280;35993;52.604;10.078;2023-04-23T08:39:26;100329.13;;;13.39;88.12
50103;BME280;35993;52.604;10.078;2023-04-23T08:41:57;100331.28;;;13.54;87.92
50103;BME280;35993;52.604;10.078;2023-04-23T08:44:27;100336.50;;;14.07;85.87
50103;BME280;35993;52.604;10.078;2023-04-23T08:46:55;100341.34;;;14.22;86.69
50103;BME280;35993;52.604;10.078;2023-04-23T08:49:22;100336.44;;;14.02;85.72
50103;BME280;35993;52.604;10.078;2023-04-23T08:51:51;100333.03;;;13.77;83.53
50103;BME280;35993;52.604;10.078;2023-04-23T08:54:27;100317.16;;;13.91;80.65
50103;BME280;35993;52.604;10.078;2023-04-23T08:56:55;100322.88;;;13.73;80.73
50103;BME280;35993;52.604;10.078;2023-04-23T08:59:29;100324.34;;;13.98;81.10
50103;BME280;35993;52.604;10.078;2023-04-23T09:01:56;100333.06;;;14.34;82.86
50103;BME280;35993;52.604;10.078;2023-04-23T09:04:24;100340.91;;;14.64;81.98
50103;BME280;35993;52.604;10.078;2023-04-23T09:06:50;100332.03;;;14.57;79.27
50103;BME280;35993;52.604;10.078;2023-04-23T09:09:16;100318.47;;;14.06;74.62
50103;BME280;35993;52.604;10.078;2023-04-23T09:11:43;100324.81;;;14.29;77.52
50103;BME280;35993;52.604;10.078;2023-04-23T09:14:09;100335.81;;;14.34;77.27
50103;BME280;35993;52.604;10.078;2023-04-23T09:16:35;100337.16;;;14.53;79.18
50103;BME280;35993;52.604;10.078;2023-04-23T09:19:01;100333.00;;;14.90;78.05
50103;BME280;35993;52.604;10.078;2023-04-23T09:21:26;100322.91;;;14.90;76.91
50103;BME280;35993;52.604;10.078;2023-04-23T09:23:52;100320.00;;;15.02;76.05
50103;BME280;35993;52.604;10.078;2023-04-23T09:26:19;100317.97;;;15.15;76.02
50103;BME280;35993;52.604;10.078;2023-04-23T09:28:50;100310.41;;;15.22;75.06
50103;BME280;35993;52.604;10.078;2023-04-23T09:31:20;100304.34;;;15.20;75.00
50103;BME280;35993;52.604;10.078;2023-04-23T09:33:53;100315.03;;;15.21;75.00
50103;BME280;35993;52.604;10.078;2023-04-23T09:36:20;100303.78;;;15.18;74.38
50103;BME280;35993;52.604;10.078;2023-04-23T09:38:48;100295.97;;;15.32;73.21
50103;BME280;35993;52.604;10.078;2023-04-23T09:41:24;100295.03;;;15.48;73.17
50103;BME280;35993;52.604;10.078;2023-04-23T09:43:53;100295.63;;;15.50;72.08
50103;BME280;35993;52.604;10.078;2023-04-23T09:46:36;100279.03;;;15.30;69.52
50103;BME280;35993;52.604;10.078;2023-04-23T09:49:04;100290.16;;;15.50;71.48
50103;BME280;35993;52.604;10.078;2023-04-23T09:54:02;100276.91;;;15.69;68.47
50103;BME280;35993;52.604;10.078;2023-04-23T09:56:29;100276.50;;;15.88;69.27
50103;BME280;35993;52.604;10.078;2023-04-23T09:58:56;100268.69;;;16.07;67.71
50103;BME280;35993;52.604;10.078;2023-04-23T10:01:28;100270.41;;;15.81;67.29
50103;BME280;35993;52.604;10.078;2023-04-23T10:03:54;100262.94;;;16.09;67.45
50103;BME280;35993;52.604;10.078;2023-04-23T10:06:28;100273.50;;;16.37;66.98
50103;BME280;35993;52.604;10.078;2023-04-23T10:08:55;100268.63;;;16.50;65.69
50103;BME280;35993;52.604;10.078;2023-04-23T10:11:23;100274.44;;;16.59;66.47
50103;BME280;35993;52.604;10.078;2023-04-23T10:13:49;100270.59;;;16.60;65.39
50103;BME280;35993;52.604;10.078;2023-04-23T10:16:15;100291.19;;;16.73;66.97
50103;BME280;35993;52.604;10.078;2023-04-23T10:18:43;100276.06;;;16.65;65.44
50103;BME280;35993;52.604;10.078;2023-04-23T10:21:10;100275.44;;;16.37;65.67
50103;BME280;35993;52.604;10.078;2023-04-23T10:23:37;100271.84;;;16.36;64.47
50103;BME280;35993;52.604;10.078;2023-04-23T10:26:06;100262.88;;;16.46;63.87
50103;BME280;35993;52.604;10.078;2023-04-23T10:28:34;100261.34;;;16.81;63.65
50103;BME280;35993;52.604;10.078;2023-04-23T10:31:00;100258.16;;;17.10;63.13
50103;BME280;35993;52.604;10.078;2023-04-23T10:33:27;100260.31;;;16.93;63.12
50103;BME280;35993;52.604;10.078;2023-04-23T10:35:55;100259.09;;;16.58;63.01
50103;BME280;35993;52.604;10.078;2023-04-23T10:38:22;100244.34;;;16.79;62.32
50103;BME280;35993;52.604;10.078;2023-04-23T10:40:49;100242.44;;;16.80;61.77
50103;BME280;35993;52.604;10.078;2023-04-23T10:43:17;100247.97;;;16.95;62.75
50103;BME280;35993;52.604;10.078;2023-04-23T10:45:43;100238.16;;;17.25;62.21
50103;BME280;35993;52.604;10.078;2023-04-23T10:48:08;100237.59;;;17.33;62.30
50103;BME280;35993;52.604;10.078;2023-04-23T10:50:35;100227.69;;;17.58;61.13
50103;BME280;35993;52.604;10.078;2023-04-23T10:53:02;100239.78;;;17.78;61.62
50103;BME280;35993;52.604;10.078;2023-04-23T10:55:31;100229.91;;;17.66;61.10
50103;BME280;35993;52.604;10.078;2023-04-23T10:58:02;100237.31;;;17.30;62.28
50103;BME280;35993;52.604;10.078;2023-04-23T11:03:31;100229.09;;;17.14;62.38
50103;BME280;35993;52.604;10.078;2023-04-23T11:06:01;100224.16;;;17.32;62.43
50103;BME280;35993;52.604;10.078;2023-04-23T11:08:28;100225.81;;;17.53;61.69
50103;BME280;35993;52.604;10.078;2023-04-23T11:11:00;100236.44;;;17.86;62.12
50103;BME280;35993;52.604;10.078;2023-04-23T11:13:27;100227.94;;;18.08;61.23
50103;BME280;35993;52.604;10.078;2023-04-23T11:16:15;100223.13;;;18.40;60.07
50103;BME280;35993;52.604;10.078;2023-04-23T11:22:01;100212.31;;;18.59;59.17
50103;BME280;35993;52.604;10.078;2023-04-23T11:24:35;100209.50;;;18.74;58.26
50103;BME280;35993;52.604;10.078;2023-04-23T11:27:05;100211.69;;;18.77;58.71
50103;BME280;35993;52.604;10.078;2023-04-23T11:29:31;100212.28;;;18.69;59.02
50103;BME280;35993;52.604;10.078;2023-04-23T11:31:58;100213.56;;;18.27;59.70
50103;BME280;35993;52.604;10.078;2023-04-23T11:34:24;100222.19;;;17.99;59.95
50103;BME280;35993;52.604;10.078;2023-04-23T11:36:52;100221.06;;;17.95;60.35
50103;BME280;35993;52.604;10.078;2023-04-23T11:39:19;100224.69;;;17.75;61.17
50103;BME280;35993;52.604;10.078;2023-04-23T11:41:45;100221.09;;;17.69;61.35
50103;BME280;35993;52.604;10.078;2023-04-23T11:44:14;100215.84;;;17.99;60.26
50103;BME280;35993;52.604;10.078;2023-04-23T11:46:40;100215.59;;;18.06;61.31
50103;BME280;35993;52.604;10.078;2023-04-23T11:49:05;100218.63;;;17.78;62.09
50103;BME280;35993;52.604;10.078;2023-04-23T11:51:34;100211.75;;;17.86;60.63
50103;BME280;35993;52.604;10.078;2023-04-23T11:54:02;100207.59;;;18.09;59.84
50103;BME280;35993;52.604;10.078;2023-04-23T11:56:31;100194.31;;;18.32;58.93
50103;BME280;35993;52.604;10.078;2023-04-23T11:59:00;100192.50;;;18.01;59.21
50103;BME280;35993;52.604;10.078;2023-04-23T12:04:13;100191.13;;;18.70;58.32
50103;BME280;35993;52.604;10.078;2023-04-23T12:06:40;100189.31;;;18.94;58.55
50103;BME280;35993;52.604;10.078;2023-04-23T12:09:10;100196.56;;;18.80;58.69
50103;BME280;35993;52.604;10.078;2023-04-23T12:11:36;100188.97;;;18.56;58.57
50103;BME280;35993;52.604;10.078;2023-04-23T12:14:02;100190.16;;;18.84;57.63
50103;BME280;35993;52.604;10.078;2023-04-23T12:16:36;100187.47;;;19.19;56.44
50103;BME280;35993;52.604;10.078;2023-04-23T12:19:03;100173.63;;;19.29;53.88
50103;BME280;35993;52.604;10.078;2023-04-23T12:21:31;100168.13;;;18.95;53.41
50103;BME280;35993;52.604;10.078;2023-04-23T12:23:57;100159.19;;;18.74;52.95
50103;BME280;35993;52.604;10.078;2023-04-23T12:26:24;100160.13;;;18.54;53.86
50103;BME280;35993;52.604;10.078;2023-04-23T12:28:54;100172.72;;;18.65;54.19
50103;BME280;35993;52.604;10.078;2023-04-23T12:31:25;100172.19;;;19.03;54.48
50103;BME280;35993;52.604;10.078;2023-04-23T12:34:00;100162.25;;;19.12;54.33
50103;BME280;35993;52.604;10.078;2023-04-23T12:36:27;100171.97;;;18.94;54.67
50103;BME280;35993;52.604;10.078;2023-04-23T12:41:43;100157.72;;;18.92;54.78
50103;BME280;35993;52.604;10.078;2023-04-23T12:44:09;100159.13;;;18.84;54.41
50103;BME280;35993;52.604;10.078;2023-04-23T12:46:35;100144.00;;;18.81;53.19